createdAt,value
2023-10-10T00:00:54.759Z,18.83
2023-10-10T00:01:55.609Z,19.20
2023-10-10T00:02:56.550Z,19.34
2023-10-10T00:03:57.486Z,19.31
2023-10-10T00:04:58.349Z,19.23
2023-10-10T00:05:59.191Z,19.08
2023-10-10T00:07:00.049Z,18.91
2023-10-10T00:08:00.994Z,18.75
2023-10-10T00:09:01.400Z,18.61
2023-10-10T00:10:02.235Z,18.46
2023-10-10T00:11:03.093Z,18.30
2023-10-10T00:12:03.937Z,18.20
2023-10-10T00:13:04.905Z,18.08
2023-10-10T00:14:05.349Z,18.01
2023-10-10T00:15:06.225Z,17.93
2023-10-10T00:16:07.069Z,17.94
2023-10-10T00:17:07.923Z,18.18
2023-10-10T00:18:08.821Z,18.57
2023-10-10T00:19:09.669Z,19.01
2023-10-10T00:20:10.715Z,19.41
2023-10-10T00:21:11.178Z,19.54
2023-10-10T00:22:12.046Z,19.54
2023-10-10T00:23:12.961Z,19.45
2023-10-10T00:24:13.892Z,19.32
2023-10-10T00:25:14.736Z,19.17
2023-10-10T00:26:15.655Z,18.98
2023-10-10T00:27:16.536Z,18.81
2023-10-10T00:28:17.389Z,18.60
2023-10-10T00:29:18.424Z,18.42
2023-10-10T00:30:18.847Z,18.28
2023-10-10T00:31:19.977Z,18.20
2023-10-10T00:32:20.457Z,18.09
2023-10-10T00:33:21.314Z,18.02
2023-10-10T00:34:22.170Z,17.94
2023-10-10T00:35:23.051Z,18.03
2023-10-10T00:36:23.929Z,18.28
2023-10-10T00:37:24.510Z,18.67
2023-10-10T00:38:25.391Z,19.15
2023-10-10T00:39:26.294Z,19.57
2023-10-10T00:40:27.248Z,19.74
2023-10-10T00:41:28.316Z,19.75
2023-10-10T00:42:28.750Z,19.63
2023-10-10T00:43:29.582Z,19.44
2023-10-10T00:44:30.479Z,19.26
2023-10-10T00:45:31.341Z,19.07
2023-10-10T00:46:32.263Z,18.89
2023-10-10T00:47:33.307Z,18.75
2023-10-10T00:48:33.798Z,18.57
2023-10-10T00:49:34.693Z,18.42
2023-10-10T00:50:35.695Z,18.31
2023-10-10T00:51:36.210Z,18.21
2023-10-10T00:52:37.099Z,18.09
2023-10-10T00:53:38.075Z,18.01
2023-10-10T00:54:38.455Z,17.94
2023-10-10T00:55:39.307Z,18.12
2023-10-10T00:56:40.146Z,18.41
2023-10-10T00:57:41.035Z,18.82
2023-10-10T00:58:41.896Z,19.27
2023-10-10T00:59:42.760Z,19.63
2023-10-10T01:00:43.690Z,19.75
2023-10-10T01:01:44.572Z,19.74
2023-10-10T01:02:45.512Z,19.60
2023-10-10T01:03:45.999Z,19.42
2023-10-10T01:04:46.863Z,19.24
2023-10-10T01:05:47.686Z,19.08
2023-10-10T01:06:48.522Z,18.91
2023-10-10T01:07:49.377Z,18.74
2023-10-10T01:08:50.202Z,18.58
2023-10-10T01:09:51.096Z,18.46
2023-10-10T01:10:51.930Z,18.31
2023-10-10T01:11:52.767Z,18.20
2023-10-10T01:12:53.606Z,18.12
2023-10-10T01:13:54.504Z,18.06
2023-10-10T01:14:55.167Z,17.97
2023-10-10T01:15:56.014Z,17.91
2023-10-10T01:16:56.883Z,17.91
2023-10-10T01:17:57.855Z,17.86
2023-10-10T01:18:58.925Z,17.78
2023-10-10T01:19:59.477Z,17.72
2023-10-10T01:21:00.309Z,17.65
2023-10-10T01:22:01.140Z,17.75
2023-10-10T01:23:01.988Z,18.15
2023-10-10T01:24:02.816Z,18.60
2023-10-10T01:25:03.730Z,19.17
2023-10-10T01:26:04.600Z,19.70
2023-10-10T01:27:05.441Z,20.18
2023-10-10T01:28:06.278Z,20.64
2023-10-10T01:29:07.114Z,21.03
2023-10-10T01:30:07.987Z,21.29
2023-10-10T01:31:08.862Z,21.26
2023-10-10T01:32:09.731Z,21.04
2023-10-10T01:33:10.603Z,20.74
2023-10-10T01:34:11.451Z,20.39
2023-10-10T01:35:12.335Z,20.07
2023-10-10T01:36:13.358Z,19.77
2023-10-10T01:37:13.723Z,19.47
2023-10-10T01:38:14.591Z,19.20
2023-10-10T01:39:15.562Z,18.96
2023-10-10T01:40:15.980Z,18.78
2023-10-10T01:41:16.909Z,18.63
2023-10-10T01:42:17.802Z,18.51
2023-10-10T01:43:18.629Z,18.41
2023-10-10T01:44:19.759Z,18.31
2023-10-10T01:45:20.451Z,18.43
2023-10-10T01:46:21.341Z,18.68
2023-10-10T01:47:22.256Z,19.07
2023-10-10T01:48:23.238Z,19.52
2023-10-10T01:49:24.124Z,19.89
2023-10-10T01:50:24.961Z,19.96
2023-10-10T01:51:25.844Z,19.89
2023-10-10T01:52:26.692Z,19.72
2023-10-10T01:53:27.530Z,19.49
2023-10-10T01:54:28.432Z,19.23
2023-10-10T01:55:29.304Z,19.01
2023-10-10T01:56:30.191Z,18.79
2023-10-10T01:57:31.061Z,18.57
2023-10-10T01:58:31.903Z,18.45
2023-10-10T01:59:32.850Z,18.30
2023-10-10T02:00:33.322Z,18.21
2023-10-10T02:01:33.800Z,18.12
2023-10-10T02:02:34.780Z,18.15
2023-10-10T02:03:35.382Z,18.41
2023-10-10T02:04:35.850Z,18.78
2023-10-10T02:05:36.804Z,19.15
2023-10-10T02:06:37.215Z,19.31
2023-10-10T02:07:38.051Z,19.31
2023-10-10T02:08:38.878Z,19.16
2023-10-10T02:09:39.767Z,19.00
2023-10-10T02:10:40.653Z,18.83
2023-10-10T02:11:41.523Z,18.68
2023-10-10T02:12:42.350Z,18.54
2023-10-10T02:13:43.204Z,18.38
2023-10-10T02:14:44.076Z,18.27
2023-10-10T02:15:44.924Z,18.09
2023-10-10T02:16:45.803Z,17.99
2023-10-10T02:17:46.686Z,17.91
2023-10-10T02:18:47.545Z,17.86
2023-10-10T02:19:48.408Z,17.79
2023-10-10T02:20:49.251Z,17.76
2023-10-10T02:21:50.081Z,17.93
2023-10-10T02:22:50.914Z,18.26
2023-10-10T02:23:51.758Z,18.76
2023-10-10T02:24:52.653Z,19.30
2023-10-10T02:25:53.506Z,19.75
2023-10-10T02:26:54.343Z,19.86
2023-10-10T02:27:55.177Z,19.82
2023-10-10T02:28:56.018Z,19.71
2023-10-10T02:29:56.933Z,19.52
2023-10-10T02:30:57.807Z,19.26
2023-10-10T02:31:58.670Z,19.00
2023-10-10T02:32:59.614Z,18.78
2023-10-10T02:34:00.524Z,18.56
2023-10-10T02:35:01.400Z,18.41
2023-10-10T02:36:02.258Z,18.26
2023-10-10T02:37:03.125Z,18.17
2023-10-10T02:38:03.983Z,18.05
2023-10-10T02:39:04.827Z,17.94
2023-10-10T02:40:05.382Z,17.83
2023-10-10T02:41:06.282Z,17.73
2023-10-10T02:42:07.160Z,17.87
2023-10-10T02:43:08.029Z,18.17
2023-10-10T02:44:08.877Z,18.52
2023-10-10T02:45:09.756Z,18.85
2023-10-10T02:46:10.670Z,18.94
2023-10-10T02:47:11.563Z,18.89
2023-10-10T02:48:12.455Z,18.78
2023-10-10T02:49:13.506Z,18.57
2023-10-10T02:50:14.183Z,18.39
2023-10-10T02:51:14.667Z,18.24
2023-10-10T02:52:15.759Z,18.12
2023-10-10T02:53:16.294Z,18.02
2023-10-10T02:54:17.125Z,17.88
2023-10-10T02:55:18.014Z,17.86
2023-10-10T02:56:18.905Z,17.76
2023-10-10T02:57:19.788Z,17.68
2023-10-10T02:58:20.615Z,17.63
2023-10-10T02:59:21.477Z,17.56
2023-10-10T03:00:22.413Z,17.52
2023-10-10T03:01:23.274Z,17.53
2023-10-10T03:02:24.259Z,17.75
2023-10-10T03:03:24.883Z,18.11
2023-10-10T03:04:25.318Z,18.58
2023-10-10T03:05:26.237Z,19.04
2023-10-10T03:06:27.116Z,19.34
2023-10-10T03:07:27.951Z,19.35
2023-10-10T03:08:28.855Z,19.23
2023-10-10T03:09:30.714Z,19.04
2023-10-10T03:10:30.594Z,18.83
2023-10-10T03:11:31.490Z,18.64
2023-10-10T03:12:32.328Z,18.46
2023-10-10T03:13:33.192Z,18.33
2023-10-10T03:14:34.118Z,18.20
2023-10-10T03:15:35.037Z,18.05
2023-10-10T03:16:35.942Z,17.91
2023-10-10T03:17:36.588Z,17.79
2023-10-10T03:18:37.523Z,17.71
2023-10-10T03:19:38.350Z,17.57
2023-10-10T03:20:39.342Z,17.62
2023-10-10T03:21:39.796Z,17.84
2023-10-10T03:22:40.623Z,18.21
2023-10-10T03:23:41.596Z,18.70
2023-10-10T03:24:41.940Z,19.08
2023-10-10T03:25:42.828Z,19.19
2023-10-10T03:26:43.686Z,19.20
2023-10-10T03:27:44.521Z,19.12
2023-10-10T03:28:45.367Z,18.96
2023-10-10T03:29:46.204Z,18.74
2023-10-10T03:30:47.068Z,18.51
2023-10-10T03:31:47.954Z,18.26
2023-10-10T03:32:48.945Z,18.01
2023-10-10T03:33:49.327Z,17.84
2023-10-10T03:34:50.152Z,17.71
2023-10-10T03:35:51.015Z,17.59
2023-10-10T03:36:51.838Z,17.46
2023-10-10T03:37:52.672Z,17.37
2023-10-10T03:38:53.583Z,17.28
2023-10-10T03:39:54.444Z,17.20
2023-10-10T03:40:55.340Z,17.13
2023-10-10T03:41:56.224Z,17.09
2023-10-10T03:42:57.061Z,17.07
2023-10-10T03:43:59.668Z,17.01
2023-10-10T03:44:58.456Z,16.98
2023-10-10T03:45:59.350Z,17.06
2023-10-10T03:47:00.212Z,17.35
2023-10-10T03:48:01.160Z,17.79
2023-10-10T03:49:02.050Z,18.21
2023-10-10T03:50:02.940Z,18.43
2023-10-10T03:51:03.881Z,18.48
2023-10-10T03:52:04.721Z,18.41
2023-10-10T03:53:05.640Z,18.27
2023-10-10T03:54:06.078Z,18.12
2023-10-10T03:55:06.927Z,17.94
2023-10-10T03:56:07.870Z,17.79
2023-10-10T03:57:08.752Z,17.62
2023-10-10T03:58:09.579Z,17.47
2023-10-10T03:59:10.510Z,17.37
2023-10-10T04:00:11.073Z,17.27
2023-10-10T04:01:12.016Z,17.16
2023-10-10T04:02:15.629Z,17.09
2023-10-10T04:03:13.466Z,16.99
2023-10-10T04:04:14.416Z,16.91
2023-10-10T04:05:26.395Z,17.01
2023-10-10T04:06:16.038Z,17.28
2023-10-10T04:07:16.940Z,17.65
2023-10-10T04:08:17.796Z,18.06
2023-10-10T04:09:18.664Z,18.21
2023-10-10T04:10:19.503Z,18.23
2023-10-10T04:11:20.415Z,18.12
2023-10-10T04:12:21.292Z,17.97
2023-10-10T04:13:22.130Z,17.81
2023-10-10T04:14:23.016Z,17.63
2023-10-10T04:15:23.862Z,17.46
2023-10-10T04:16:24.727Z,17.35
2023-10-10T04:17:25.626Z,17.22
2023-10-10T04:18:26.526Z,17.10
2023-10-10T04:19:28.644Z,17.01
2023-10-10T04:20:28.053Z,16.91
2023-10-10T04:21:28.939Z,16.83
2023-10-10T04:22:29.773Z,16.73
2023-10-10T04:23:30.680Z,16.70
2023-10-10T04:24:31.559Z,16.61
2023-10-10T04:25:32.402Z,16.61
2023-10-10T04:26:33.302Z,16.82
2023-10-10T04:27:34.192Z,17.17
2023-10-10T04:28:35.033Z,17.57
2023-10-10T04:29:35.984Z,17.75
2023-10-10T04:30:36.845Z,17.76
2023-10-10T04:31:37.750Z,17.69
2023-10-10T04:32:38.756Z,17.57
2023-10-10T04:33:39.189Z,17.45
2023-10-10T04:34:40.045Z,17.31
2023-10-10T04:35:40.920Z,17.16
2023-10-10T04:36:42.137Z,17.06
2023-10-10T04:37:42.469Z,16.91
2023-10-10T04:38:43.349Z,16.82
2023-10-10T04:39:44.185Z,16.73
2023-10-10T04:40:45.035Z,16.61
2023-10-10T04:41:45.895Z,16.51
2023-10-10T04:42:46.751Z,16.61
2023-10-10T04:43:47.592Z,16.92
2023-10-10T04:44:48.507Z,17.37
2023-10-10T04:45:49.433Z,17.69
2023-10-10T04:46:50.358Z,17.78
2023-10-10T04:47:51.323Z,17.78
2023-10-10T04:48:51.702Z,17.69
2023-10-10T04:49:52.530Z,17.52
2023-10-10T04:50:53.363Z,17.37
2023-10-10T04:51:54.216Z,17.20
2023-10-10T04:52:55.052Z,17.06
2023-10-10T04:53:55.909Z,16.94
2023-10-10T04:54:56.750Z,16.80
2023-10-10T04:55:57.601Z,16.70
2023-10-10T04:56:58.492Z,16.61
2023-10-10T04:57:59.372Z,16.52
2023-10-10T04:59:00.248Z,16.46
2023-10-10T05:00:01.107Z,16.42
2023-10-10T05:01:01.952Z,16.36
2023-10-10T05:02:02.875Z,16.59
2023-10-10T05:03:03.752Z,16.94
2023-10-10T05:04:04.675Z,17.28
2023-10-10T05:05:05.552Z,17.38
2023-10-10T05:06:06.406Z,17.35
2023-10-10T05:07:07.284Z,17.28
2023-10-10T05:08:08.176Z,17.17
2023-10-10T05:09:09.049Z,17.04
2023-10-10T05:10:09.895Z,16.92
2023-10-10T05:11:10.754Z,16.83
2023-10-10T05:12:11.671Z,16.77
2023-10-10T05:13:12.569Z,16.65
2023-10-10T05:14:13.566Z,16.57
2023-10-10T05:15:13.975Z,16.47
2023-10-10T05:16:14.851Z,16.37
2023-10-10T05:17:15.796Z,16.33
2023-10-10T05:18:16.687Z,16.37
2023-10-10T05:19:17.541Z,16.64
2023-10-10T05:20:18.470Z,17.02
2023-10-10T05:21:19.318Z,17.47
2023-10-10T05:22:20.157Z,17.69
2023-10-10T05:23:21.030Z,17.71
2023-10-10T05:24:21.870Z,17.65
2023-10-10T05:25:22.726Z,17.49
2023-10-10T05:26:23.636Z,17.32
2023-10-10T05:27:24.482Z,17.20
2023-10-10T05:28:25.350Z,17.07
2023-10-10T05:29:26.228Z,16.95
2023-10-10T05:30:27.126Z,16.82
2023-10-10T05:31:28.048Z,16.67
2023-10-10T05:32:28.942Z,16.57
2023-10-10T05:33:29.835Z,16.52
2023-10-10T05:34:30.768Z,16.46
2023-10-10T05:35:31.666Z,16.40
2023-10-10T05:36:32.582Z,16.36
2023-10-10T05:37:33.434Z,16.55
2023-10-10T05:38:34.305Z,16.95
2023-10-10T05:39:35.151Z,17.39
2023-10-10T05:40:35.999Z,17.68
2023-10-10T05:41:36.904Z,17.72
2023-10-10T05:42:37.786Z,17.65
2023-10-10T05:43:38.683Z,17.54
2023-10-10T05:44:39.516Z,17.39
2023-10-10T05:45:40.514Z,17.28
2023-10-10T05:46:41.412Z,17.14
2023-10-10T05:47:42.310Z,16.98
2023-10-10T05:48:43.208Z,16.87
2023-10-10T05:49:44.029Z,16.73
2023-10-10T05:50:44.877Z,16.59
2023-10-10T05:51:45.744Z,16.52
2023-10-10T05:52:46.607Z,16.58
2023-10-10T05:53:47.670Z,16.77
2023-10-10T05:54:48.138Z,17.13
2023-10-10T05:55:48.963Z,17.47
2023-10-10T05:56:49.845Z,17.62
2023-10-10T05:57:50.675Z,17.59
2023-10-10T05:58:53.249Z,17.52
2023-10-10T05:59:52.365Z,17.37
2023-10-10T06:00:53.256Z,17.25
2023-10-10T06:01:54.204Z,17.13
2023-10-10T06:02:55.119Z,16.99
2023-10-10T06:03:55.691Z,16.87
2023-10-10T06:04:56.041Z,16.76
2023-10-10T06:05:56.871Z,16.70
2023-10-10T06:06:57.779Z,16.61
2023-10-10T06:07:58.604Z,16.55
2023-10-10T06:08:59.438Z,16.49
2023-10-10T06:10:00.263Z,16.43
2023-10-10T06:11:01.113Z,16.55
2023-10-10T06:12:02.016Z,16.88
2023-10-10T06:13:02.837Z,17.25
2023-10-10T06:14:03.747Z,17.50
2023-10-10T06:15:04.617Z,17.59
2023-10-10T06:16:05.519Z,17.59
2023-10-10T06:17:06.507Z,17.53
2023-10-10T06:18:06.973Z,17.41
2023-10-10T06:19:07.832Z,17.31
2023-10-10T06:20:08.773Z,17.22
2023-10-10T06:21:10.453Z,17.12
2023-10-10T06:22:10.507Z,17.02
2023-10-10T06:23:11.374Z,16.94
2023-10-10T06:24:12.204Z,16.83
2023-10-10T06:25:13.029Z,16.77
2023-10-10T06:26:14.249Z,16.72
2023-10-10T06:27:14.808Z,16.61
2023-10-10T06:28:15.656Z,16.55
2023-10-10T06:29:16.575Z,16.49
2023-10-10T06:30:17.428Z,16.47
2023-10-10T06:31:18.323Z,16.39
2023-10-10T06:32:18.788Z,16.33
2023-10-10T06:33:19.724Z,16.33
2023-10-10T06:34:20.299Z,16.29
2023-10-10T06:35:20.735Z,16.28
2023-10-10T06:36:21.669Z,16.22
2023-10-10T06:37:22.058Z,16.13
2023-10-10T06:38:23.023Z,16.13
2023-10-10T06:39:23.969Z,16.14
2023-10-10T06:40:24.834Z,16.16
2023-10-10T06:41:25.732Z,16.13
2023-10-10T06:42:26.614Z,16.10
2023-10-10T06:43:27.445Z,16.09
2023-10-10T06:44:28.411Z,16.25
2023-10-10T06:45:29.312Z,16.70
2023-10-10T06:46:30.169Z,17.19
2023-10-10T06:47:31.077Z,17.73
2023-10-10T06:48:31.960Z,18.26
2023-10-10T06:49:32.824Z,18.75
2023-10-10T06:50:33.702Z,19.34
2023-10-10T06:51:34.587Z,19.84
2023-10-10T06:52:35.461Z,20.17
2023-10-10T06:53:36.361Z,20.09
2023-10-10T06:54:37.303Z,19.78
2023-10-10T06:55:38.240Z,19.54
2023-10-10T06:56:39.167Z,19.27
2023-10-10T06:57:43.626Z,19.01
2023-10-10T06:58:40.748Z,18.68
2023-10-10T06:59:41.725Z,18.41
2023-10-10T07:00:42.101Z,18.11
2023-10-10T07:01:42.983Z,17.88
2023-10-10T07:02:43.879Z,17.69
2023-10-10T07:03:44.895Z,17.49
2023-10-10T07:04:45.295Z,17.34
2023-10-10T07:05:46.155Z,17.19
2023-10-10T07:06:47.004Z,17.25
2023-10-10T07:07:47.838Z,17.47
2023-10-10T07:08:48.672Z,17.84
2023-10-10T07:09:49.524Z,18.23
2023-10-10T07:10:50.348Z,18.34
2023-10-10T07:11:51.212Z,18.34
2023-10-10T07:12:52.037Z,18.26
2023-10-10T07:13:52.856Z,18.13
2023-10-10T07:14:53.864Z,18.05
2023-10-10T07:15:54.361Z,17.94
2023-10-10T07:16:54.759Z,17.83
2023-10-10T07:17:55.746Z,17.73
2023-10-10T07:18:56.188Z,17.59
2023-10-10T07:19:57.050Z,17.49
2023-10-10T07:20:57.872Z,17.38
2023-10-10T07:21:58.721Z,17.34
2023-10-10T07:22:59.556Z,17.46
2023-10-10T07:24:00.376Z,17.69
2023-10-10T07:25:01.255Z,18.03
2023-10-10T07:26:02.132Z,18.52
2023-10-10T07:27:02.980Z,18.70
2023-10-10T07:28:03.813Z,18.75
2023-10-10T07:29:04.658Z,18.74
2023-10-10T07:30:05.575Z,18.61
2023-10-10T07:31:06.432Z,18.45
2023-10-10T07:32:07.326Z,18.31
2023-10-10T07:33:08.268Z,18.13
2023-10-10T07:34:09.124Z,18.01
2023-10-10T07:35:10.062Z,17.83
2023-10-10T07:36:10.481Z,17.73
2023-10-10T07:37:11.317Z,17.66
2023-10-10T07:38:12.172Z,17.53
2023-10-10T07:39:13.009Z,17.63
2023-10-10T07:40:13.906Z,17.90
2023-10-10T07:41:14.814Z,18.30
2023-10-10T07:42:15.664Z,18.49
2023-10-10T07:43:16.534Z,18.58
2023-10-10T07:44:17.634Z,18.54
2023-10-10T07:45:18.077Z,18.45
2023-10-10T07:46:18.962Z,18.33
2023-10-10T07:47:19.854Z,18.23
2023-10-10T07:48:20.764Z,18.08
2023-10-10T07:49:21.658Z,17.97
2023-10-10T07:50:22.577Z,17.84
2023-10-10T07:51:23.436Z,17.73
2023-10-10T07:52:24.275Z,17.66
2023-10-10T07:53:25.234Z,17.56
2023-10-10T07:54:26.104Z,17.52
2023-10-10T07:55:26.992Z,17.49
2023-10-10T07:56:27.849Z,17.46
2023-10-10T07:57:28.712Z,17.50
2023-10-10T07:58:44.969Z,17.78
2023-10-10T07:59:30.375Z,18.15
2023-10-10T08:00:31.333Z,18.61
2023-10-10T08:01:32.160Z,19.08
2023-10-10T08:02:33.802Z,19.26
2023-10-10T08:03:34.094Z,19.24
2023-10-10T08:04:34.522Z,19.17
2023-10-10T08:05:35.465Z,19.00
2023-10-10T08:06:36.352Z,18.82
2023-10-10T08:07:37.209Z,18.75
2023-10-10T08:08:38.090Z,18.60
2023-10-10T08:09:38.936Z,18.46
2023-10-10T08:10:40.200Z,18.30
2023-10-10T08:11:40.657Z,18.15
2023-10-10T08:12:41.127Z,18.08
2023-10-10T08:13:42.043Z,18.02
2023-10-10T08:14:42.931Z,18.01
2023-10-10T08:15:43.831Z,18.20
2023-10-10T08:16:44.836Z,18.52
2023-10-10T08:17:45.286Z,18.97
2023-10-10T08:18:46.164Z,19.45
2023-10-10T08:19:46.998Z,19.89
2023-10-10T08:20:47.942Z,20.04
2023-10-10T08:21:48.834Z,19.96
2023-10-10T08:22:49.672Z,19.81
2023-10-10T08:23:50.576Z,19.67
2023-10-10T08:24:51.425Z,19.38
2023-10-10T08:25:52.287Z,19.23
2023-10-10T08:26:53.360Z,18.96
2023-10-10T08:27:53.787Z,18.76
2023-10-10T08:28:54.626Z,18.66
2023-10-10T08:29:55.457Z,18.57
2023-10-10T08:30:56.505Z,18.49
2023-10-10T08:31:56.913Z,18.42
2023-10-10T08:32:57.804Z,18.33
2023-10-10T08:33:58.660Z,18.31
2023-10-10T08:34:59.526Z,18.36
2023-10-10T08:36:00.406Z,18.66
2023-10-10T08:37:01.240Z,19.08
2023-10-10T08:38:02.081Z,19.50
2023-10-10T08:39:02.910Z,19.71
2023-10-10T08:40:03.779Z,19.75
2023-10-10T08:41:04.617Z,19.71
2023-10-10T08:42:05.489Z,19.68
2023-10-10T08:43:06.323Z,19.57
2023-10-10T08:44:07.164Z,19.45
2023-10-10T08:45:07.998Z,19.37
2023-10-10T08:46:08.894Z,19.24
2023-10-10T08:47:09.872Z,19.20
2023-10-10T08:48:10.846Z,19.05
2023-10-10T08:49:11.285Z,19.00
2023-10-10T08:50:12.164Z,18.97
2023-10-10T08:51:13.019Z,18.96
2023-10-10T08:52:13.854Z,18.93
2023-10-10T08:53:14.743Z,18.93
2023-10-10T08:54:15.864Z,18.98
2023-10-10T08:55:16.474Z,18.96
2023-10-10T08:56:17.359Z,19.20
2023-10-10T08:57:18.245Z,19.72
2023-10-10T08:58:19.116Z,20.29
2023-10-10T08:59:19.974Z,20.88
2023-10-10T09:00:20.880Z,21.40
2023-10-10T09:01:21.807Z,21.66
2023-10-10T09:02:22.674Z,21.60
2023-10-10T09:03:23.751Z,21.41
2023-10-10T09:04:24.264Z,21.26
2023-10-10T09:05:24.755Z,20.98
2023-10-10T09:06:25.628Z,20.80
2023-10-10T09:07:26.451Z,20.49
2023-10-10T09:08:27.390Z,20.18
2023-10-10T09:09:28.267Z,20.07
2023-10-10T09:10:29.106Z,19.92
2023-10-10T09:11:31.370Z,19.87
2023-10-10T09:12:30.480Z,19.79
2023-10-10T09:13:31.350Z,19.75
2023-10-10T09:14:32.213Z,19.71
2023-10-10T09:15:32.725Z,19.57
2023-10-10T09:16:33.620Z,19.57
2023-10-10T09:17:36.025Z,19.60
2023-10-10T09:18:35.417Z,19.57
2023-10-10T09:19:36.278Z,19.59
2023-10-10T09:20:37.154Z,19.62
2023-10-10T09:21:38.015Z,19.67
2023-10-10T09:22:38.935Z,19.94
2023-10-10T09:23:39.820Z,20.27
2023-10-10T09:24:40.674Z,20.68
2023-10-10T09:25:41.552Z,21.18
2023-10-10T09:26:42.471Z,21.43
2023-10-10T09:27:43.346Z,21.45
2023-10-10T09:28:44.200Z,21.38
2023-10-10T09:29:45.680Z,21.10
2023-10-10T09:30:45.569Z,20.86
2023-10-10T09:31:46.502Z,20.71
2023-10-10T09:32:47.425Z,20.50
2023-10-10T09:33:48.365Z,20.37
2023-10-10T09:34:49.205Z,20.27
2023-10-10T09:35:50.230Z,20.22
2023-10-10T09:36:52.123Z,20.17
2023-10-10T09:37:51.682Z,20.09
2023-10-10T09:38:52.582Z,19.99
2023-10-10T09:39:53.429Z,19.94
2023-10-10T09:40:54.280Z,19.94
2023-10-10T09:41:55.106Z,19.92
2023-10-10T09:42:55.951Z,19.87
2023-10-10T09:43:56.889Z,19.92
2023-10-10T09:44:57.772Z,20.14
2023-10-10T09:45:58.763Z,20.67
2023-10-10T09:46:59.630Z,21.32
2023-10-10T09:48:00.532Z,21.91
2023-10-10T09:49:01.506Z,22.30
2023-10-10T09:50:02.368Z,22.34
2023-10-10T09:51:03.262Z,22.37
2023-10-10T09:52:04.093Z,22.27
2023-10-10T09:53:04.968Z,22.15
2023-10-10T09:54:05.887Z,21.97
2023-10-10T09:55:06.757Z,21.66
2023-10-10T09:56:07.579Z,21.40
2023-10-10T09:57:08.456Z,21.20
2023-10-10T09:58:09.303Z,21.04
2023-10-10T09:59:10.200Z,20.89
2023-10-10T10:00:26.165Z,20.82
2023-10-10T10:01:11.791Z,20.71
2023-10-10T10:02:12.670Z,20.65
2023-10-10T10:03:13.599Z,20.56
2023-10-10T10:04:14.818Z,20.53
2023-10-10T10:05:15.718Z,20.48
2023-10-10T10:06:16.141Z,20.46
2023-10-10T10:07:16.979Z,20.42
2023-10-10T10:08:17.842Z,20.41
2023-10-10T10:09:18.741Z,20.70
2023-10-10T10:10:19.645Z,20.98
2023-10-10T10:11:20.509Z,21.38
2023-10-10T10:12:21.357Z,21.80
2023-10-10T10:13:22.193Z,22.19
2023-10-10T10:14:23.226Z,22.27
2023-10-10T10:15:23.622Z,22.11
2023-10-10T10:16:24.573Z,22.00
2023-10-10T10:17:25.012Z,21.84
2023-10-10T10:18:25.881Z,21.67
2023-10-10T10:19:26.719Z,21.55
2023-10-10T10:20:27.589Z,21.45
2023-10-10T10:21:28.540Z,21.26
2023-10-10T10:22:29.376Z,21.16
2023-10-10T10:23:30.217Z,21.11
2023-10-10T10:24:31.049Z,21.05
2023-10-10T10:25:33.313Z,21.05
2023-10-10T10:26:32.680Z,21.05
2023-10-10T10:27:33.248Z,21.10
2023-10-10T10:28:33.612Z,21.04
2023-10-10T10:29:34.519Z,21.04
2023-10-10T10:30:35.363Z,21.07
2023-10-10T10:31:38.401Z,21.29
2023-10-10T10:32:37.137Z,21.69
2023-10-10T10:33:37.601Z,22.03
2023-10-10T10:34:38.455Z,22.44
2023-10-10T10:35:39.366Z,22.67
2023-10-10T10:36:40.251Z,22.76
2023-10-10T10:37:41.198Z,22.71
2023-10-10T10:38:42.079Z,22.61
2023-10-10T10:39:42.939Z,22.44
2023-10-10T10:40:43.789Z,22.33
2023-10-10T10:41:44.910Z,22.21
2023-10-10T10:42:45.350Z,22.15
2023-10-10T10:43:46.244Z,22.06
2023-10-10T10:44:47.126Z,22.00
2023-10-10T10:45:48.033Z,21.97
2023-10-10T10:46:48.873Z,21.82
2023-10-10T10:47:49.842Z,21.75
2023-10-10T10:48:50.739Z,21.66
2023-10-10T10:49:51.579Z,21.58
2023-10-10T10:50:52.431Z,21.55
2023-10-10T10:51:53.266Z,21.51
2023-10-10T10:52:54.110Z,21.47
2023-10-10T10:53:55.021Z,21.41
2023-10-10T10:54:55.862Z,21.40
2023-10-10T10:55:56.695Z,21.32
2023-10-10T10:56:57.608Z,21.28
2023-10-10T10:57:58.489Z,21.30
2023-10-10T10:58:59.368Z,21.69
2023-10-10T11:00:00.392Z,22.30
2023-10-10T11:01:00.871Z,22.92
2023-10-10T11:02:01.748Z,23.46
2023-10-10T11:03:02.725Z,23.60
2023-10-10T11:04:03.201Z,23.54
2023-10-10T11:05:04.060Z,23.25
2023-10-10T11:06:05.236Z,23.03
2023-10-10T11:07:05.757Z,22.85
2023-10-10T11:08:06.590Z,22.71
2023-10-10T11:09:07.512Z,22.49
2023-10-10T11:10:08.619Z,22.36
2023-10-10T11:11:09.125Z,22.23
2023-10-10T11:12:10.470Z,22.15
2023-10-10T11:13:10.929Z,21.96
2023-10-10T11:14:11.818Z,21.84
2023-10-10T11:15:12.775Z,21.84
2023-10-10T11:16:13.320Z,21.78
2023-10-10T11:17:14.168Z,21.65
2023-10-10T11:18:15.122Z,21.55
2023-10-10T11:19:16.184Z,21.44
2023-10-10T11:20:16.653Z,21.38
2023-10-10T11:21:17.500Z,21.32
2023-10-10T11:22:18.343Z,21.32
2023-10-10T11:23:19.829Z,21.45
2023-10-10T11:24:20.039Z,21.88
2023-10-10T11:25:20.886Z,22.31
2023-10-10T11:26:21.857Z,22.89
2023-10-10T11:27:22.709Z,23.34
2023-10-10T11:28:23.723Z,23.54
2023-10-10T11:29:24.157Z,23.51
2023-10-10T11:30:25.010Z,23.26
2023-10-10T11:31:25.930Z,23.08
2023-10-10T11:32:26.821Z,22.91
2023-10-10T11:33:27.775Z,22.73
2023-10-10T11:34:28.672Z,22.58
2023-10-10T11:35:29.538Z,22.41
2023-10-10T11:36:30.692Z,22.27
2023-10-10T11:37:31.357Z,22.09
2023-10-10T11:38:32.265Z,21.94
2023-10-10T11:39:33.692Z,21.91
2023-10-10T11:40:33.617Z,21.96
2023-10-10T11:41:34.559Z,21.91
2023-10-10T11:42:34.959Z,21.94
2023-10-10T11:43:36.002Z,21.84
2023-10-10T11:44:36.427Z,21.81
2023-10-10T11:45:37.498Z,21.73
2023-10-10T11:46:37.995Z,21.67
2023-10-10T11:47:38.963Z,21.69
2023-10-10T11:48:39.459Z,21.93
2023-10-10T11:49:40.320Z,22.37
2023-10-10T11:50:41.158Z,22.91
2023-10-10T11:51:42.037Z,23.42
2023-10-10T11:52:45.484Z,23.69
2023-10-10T11:53:43.627Z,23.56
2023-10-10T11:54:44.497Z,23.46
2023-10-10T11:55:45.332Z,23.26
2023-10-10T11:56:46.208Z,23.07
2023-10-10T11:57:47.066Z,22.83
2023-10-10T11:58:47.905Z,22.71
2023-10-10T11:59:48.842Z,22.61
2023-10-10T12:00:49.718Z,22.48
2023-10-10T12:01:50.563Z,22.34
2023-10-10T12:02:51.521Z,22.25
2023-10-10T12:03:52.069Z,22.22
2023-10-10T12:04:52.517Z,22.07
2023-10-10T12:05:53.373Z,21.98
2023-10-10T12:06:54.212Z,21.91
2023-10-10T12:07:55.044Z,21.88
2023-10-10T12:08:56.079Z,21.85
2023-10-10T12:09:56.524Z,21.82
2023-10-10T12:10:57.380Z,21.81
2023-10-10T12:11:58.237Z,22.04
2023-10-10T12:12:59.100Z,22.37
2023-10-10T12:13:59.962Z,22.67
2023-10-10T12:15:00.893Z,23.14
2023-10-10T12:16:01.760Z,23.79
2023-10-10T12:17:02.607Z,24.40
2023-10-10T12:18:03.533Z,24.68
2023-10-10T12:19:04.042Z,24.86
2023-10-10T12:20:04.908Z,24.99
2023-10-10T12:21:05.752Z,24.93
2023-10-10T12:22:06.604Z,24.75
2023-10-10T12:23:07.439Z,24.44
2023-10-10T12:24:08.318Z,24.22
2023-10-10T12:25:09.229Z,23.98
2023-10-10T12:26:10.062Z,23.85
2023-10-10T12:27:10.916Z,23.69
2023-10-10T12:28:11.782Z,23.36
2023-10-10T12:29:12.634Z,23.18
2023-10-10T12:30:13.543Z,23.03
2023-10-10T12:31:14.530Z,22.91
2023-10-10T12:32:14.938Z,22.80
2023-10-10T12:33:15.909Z,22.66
2023-10-10T12:34:17.040Z,22.53
2023-10-10T12:35:17.636Z,22.48
2023-10-10T12:36:18.545Z,22.41
2023-10-10T12:37:19.420Z,22.31
2023-10-10T12:38:20.292Z,22.22
2023-10-10T12:39:21.135Z,22.21
2023-10-10T12:40:22.019Z,22.18
2023-10-10T12:41:22.962Z,22.27
2023-10-10T12:42:23.391Z,22.53
2023-10-10T12:43:24.233Z,22.95
2023-10-10T12:44:25.152Z,23.36
2023-10-10T12:45:25.609Z,23.79
2023-10-10T12:46:26.476Z,24.13
2023-10-10T12:47:26.970Z,24.16
2023-10-10T12:48:27.856Z,23.92
2023-10-10T12:49:28.752Z,23.64
2023-10-10T12:50:29.644Z,23.28
2023-10-10T12:51:30.561Z,23.11
2023-10-10T12:52:31.530Z,23.03
2023-10-10T12:53:32.447Z,22.95
2023-10-10T12:54:32.888Z,22.93
2023-10-10T12:55:33.716Z,22.93
2023-10-10T12:56:34.580Z,22.88
2023-10-10T12:57:35.493Z,22.88
2023-10-10T12:58:36.318Z,22.83
2023-10-10T12:59:37.205Z,22.78
2023-10-10T13:00:38.050Z,22.74
2023-10-10T13:01:38.940Z,22.70
2023-10-10T13:02:39.919Z,22.66
2023-10-10T13:03:40.454Z,22.56